KHFJ

Monett Regional Airport

Monett, Missouri, USA
METAR KHFJ 160550Z AUTO 18003KT 10SM SCT065 22/22 A2997 RMK AO2 LTG DSNT SE
Observed Flight Rules
Aug-16 @ 05:50 UTC (28 minutes ago) Visual Flight Rules
Wind Visibility Clouds
180° at 3 knots 10 miles
  • Scattered at 6,500' AGL
Temperatures Readings
Current 22°C / 72°F
Dewpoint 22°C / 72°F
Humidity 100%
Altimeter 29.97" Hg
Pressure 1015 hPa
Elevation 401
METAR KHFJ 160550Z AUTO 18003KT 10SM SCT065 22/22 A2997 RMK AO2 LTG DSNT SE
Observed Flight Rules
Aug-16 @ 05:50 UTC
(28 minutes ago)
VFR
Wind Visibility
180° at 3 knots 10 miles
Clouds
  • Scattered at 6,500' AGL
Temperature Dewpoint
22°C / 72°F 22°C / 72°F
Humidity Altimeter Pressure
100% 29.97" Hg 1015 hPa